sensor_id;sensor_type;location;lat;lon;timestamp;pressure;altitude;pressure_sealevel;temperature;humidity
7888;BME280;3989;48.810;9.208;2022-07-06T00:01:12;99319.00;;;18.44;72.15
7888;BME280;3989;48.810;9.208;2022-07-06T00:03:39;99332.69;;;18.49;73.29
7888;BME280;3989;48.810;9.208;2022-07-06T00:06:05;99329.22;;;18.42;73.51
7888;BME280;3989;48.810;9.208;2022-07-06T00:08:32;99331.69;;;18.43;73.93
7888;BME280;3989;48.810;9.208;2022-07-06T00:10:59;99325.88;;;18.40;75.10
7888;BME280;3989;48.810;9.208;2022-07-06T00:13:26;99325.88;;;18.40;75.56
7888;BME280;3989;48.810;9.208;2022-07-06T00:15:54;99314.69;;;18.29;76.40
7888;BME280;3989;48.810;9.208;2022-07-06T00:18:20;99297.94;;;18.14;77.59
7888;BME280;3989;48.810;9.208;2022-07-06T00:20:47;99321.78;;;18.30;77.88
7888;BME280;3989;48.810;9.208;2022-07-06T00:23:14;99326.16;;;18.25;78.88
7888;BME280;3989;48.810;9.208;2022-07-06T00:25:41;99316.00;;;18.20;79.19
7888;BME280;3989;48.810;9.208;2022-07-06T00:28:07;99320.78;;;18.18;79.40
7888;BME280;3989;48.810;9.208;2022-07-06T00:30:34;99312.09;;;18.10;80.66
7888;BME280;3989;48.810;9.208;2022-07-06T00:33:02;99313.16;;;18.09;81.06
7888;BME280;3989;48.810;9.208;2022-07-06T00:35:29;99303.22;;;17.96;81.43
7888;BME280;3989;48.810;9.208;2022-07-06T00:37:56;99317.09;;;18.00;81.99
7888;BME280;3989;48.810;9.208;2022-07-06T00:40:22;99297.63;;;17.84;82.25
7888;BME280;3989;48.810;9.208;2022-07-06T00:42:49;99322.72;;;17.98;82.78
7888;BME280;3989;48.810;9.208;2022-07-06T00:45:17;99315.91;;;17.89;83.06
7888;BME280;3989;48.810;9.208;2022-07-06T00:47:45;99318.63;;;17.82;83.82
7888;BME280;3989;48.810;9.208;2022-07-06T00:50:14;99307.03;;;17.75;84.08
7888;BME280;3989;48.810;9.208;2022-07-06T00:52:44;99324.66;;;17.78;84.82
7888;BME280;3989;48.810;9.208;2022-07-06T00:55:12;99296.28;;;17.56;85.91
7888;BME280;3989;48.810;9.208;2022-07-06T00:57:40;99319.91;;;17.73;85.30
7888;BME280;3989;48.810;9.208;2022-07-06T01:00:09;99311.19;;;17.65;85.83
7888;BME280;3989;48.810;9.208;2022-07-06T01:02:36;99315.97;;;17.69;85.64
7888;BME280;3989;48.810;9.208;2022-07-06T01:05:04;99321.56;;;17.68;85.86
7888;BME280;3989;48.810;9.208;2022-07-06T01:07:33;99323.84;;;17.64;85.70
7888;BME280;3989;48.810;9.208;2022-07-06T01:10:02;99304.75;;;17.53;86.56
7888;BME280;3989;48.810;9.208;2022-07-06T01:12:29;99326.56;;;17.58;86.42
7888;BME280;3989;48.810;9.208;2022-07-06T01:14:56;99313.69;;;17.47;86.44
7888;BME280;3989;48.810;9.208;2022-07-06T01:17:23;99316.81;;;17.57;86.65
7888;BME280;3989;48.810;9.208;2022-07-06T01:19:50;99326.16;;;17.54;86.58
7888;BME280;3989;48.810;9.208;2022-07-06T01:22:18;99321.38;;;17.50;87.26
7888;BME280;3989;48.810;9.208;2022-07-06T01:24:45;99318.25;;;17.46;87.38
7888;BME280;3989;48.810;9.208;2022-07-06T01:27:11;99287.59;;;17.21;88.58
7888;BME280;3989;48.810;9.208;2022-07-06T01:29:38;99302.91;;;17.33;88.48
7888;BME280;3989;48.810;9.208;2022-07-06T01:32:05;99320.97;;;17.33;88.59
7888;BME280;3989;48.810;9.208;2022-07-06T01:34:32;99323.91;;;17.31;88.01
7888;BME280;3989;48.810;9.208;2022-07-06T01:36:59;99307.50;;;17.20;88.91
7888;BME280;3989;48.810;9.208;2022-07-06T01:39:27;99286.75;;;17.01;88.58
7888;BME280;3989;48.810;9.208;2022-07-06T01:41:53;99314.97;;;17.18;88.68
7888;BME280;3989;48.810;9.208;2022-07-06T01:44:20;99318.69;;;17.17;88.25
7888;BME280;3989;48.810;9.208;2022-07-06T01:46:47;99314.13;;;17.11;88.81
7888;BME280;3989;48.810;9.208;2022-07-06T01:49:13;99317.25;;;17.08;88.75
7888;BME280;3989;48.810;9.208;2022-07-06T01:51:40;99308.94;;;17.03;89.15
7888;BME280;3989;48.810;9.208;2022-07-06T01:54:06;99308.75;;;16.98;88.97
7888;BME280;3989;48.810;9.208;2022-07-06T01:56:34;99305.00;;;16.92;88.94
7888;BME280;3989;48.810;9.208;2022-07-06T01:59:01;99313.94;;;16.93;88.54
7888;BME280;3989;48.810;9.208;2022-07-06T02:01:27;99301.66;;;16.84;89.17
7888;BME280;3989;48.810;9.208;2022-07-06T02:03:54;99320.78;;;16.89;88.96
7888;BME280;3989;48.810;9.208;2022-07-06T02:06:21;99289.41;;;16.61;89.14
7888;BME280;3989;48.810;9.208;2022-07-06T02:08:47;99320.16;;;16.80;88.58
7888;BME280;3989;48.810;9.208;2022-07-06T02:11:14;99310.16;;;16.74;88.67
7888;BME280;3989;48.810;9.208;2022-07-06T02:13:42;99291.91;;;16.63;88.34
7888;BME280;3989;48.810;9.208;2022-07-06T02:16:09;99334.03;;;16.84;88.43
7888;BME280;3989;48.810;9.208;2022-07-06T02:18:36;99332.56;;;16.81;88.72
7888;BME280;3989;48.810;9.208;2022-07-06T02:21:04;99325.91;;;16.77;89.66
7888;BME280;3989;48.810;9.208;2022-07-06T02:23:31;99328.00;;;16.75;89.34
7888;BME280;3989;48.810;9.208;2022-07-06T02:25:58;99326.13;;;16.69;90.01
7888;BME280;3989;48.810;9.208;2022-07-06T02:28:24;99310.09;;;16.54;91.34
7888;BME280;3989;48.810;9.208;2022-07-06T02:30:52;99332.09;;;16.58;92.93
7888;BME280;3989;48.810;9.208;2022-07-06T02:33:19;99271.06;;;16.17;93.53
7888;BME280;3989;48.810;9.208;2022-07-06T02:35:45;99276.63;;;16.09;94.38
7888;BME280;3989;48.810;9.208;2022-07-06T02:38:12;99331.25;;;16.51;95.63
7888;BME280;3989;48.810;9.208;2022-07-06T02:40:39;99270.19;;;16.04;97.11
7888;BME280;3989;48.810;9.208;2022-07-06T02:43:05;99301.94;;;16.21;97.47
7888;BME280;3989;48.810;9.208;2022-07-06T02:45:32;99341.34;;;16.42;98.34
7888;BME280;3989;48.810;9.208;2022-07-06T02:48:00;99281.34;;;16.01;99.33
7888;BME280;3989;48.810;9.208;2022-07-06T02:50:27;99250.22;;;15.79;99.73
7888;BME280;3989;48.810;9.208;2022-07-06T02:52:53;99358.13;;;16.31;100.00
7888;BME280;3989;48.810;9.208;2022-07-06T02:55:21;99350.63;;;16.26;100.00
7888;BME280;3989;48.810;9.208;2022-07-06T02:57:48;99275.03;;;15.74;100.00
7888;BME280;3989;48.810;9.208;2022-07-06T03:00:15;99313.81;;;15.86;100.00
7888;BME280;3989;48.810;9.208;2022-07-06T03:02:42;99357.41;;;16.16;100.00
7888;BME280;3989;48.810;9.208;2022-07-06T03:05:10;99334.75;;;15.97;100.00
7888;BME280;3989;48.810;9.208;2022-07-06T03:07:36;99358.44;;;16.08;100.00
7888;BME280;3989;48.810;9.208;2022-07-06T03:10:05;99205.91;;;15.06;100.00
7888;BME280;3989;48.810;9.208;2022-07-06T03:12:31;99359.66;;;15.99;100.00
7888;BME280;3989;48.810;9.208;2022-07-06T03:14:58;99339.84;;;15.79;100.00
7888;BME280;3989;48.810;9.208;2022-07-06T03:17:25;99361.88;;;15.89;100.00
7888;BME280;3989;48.810;9.208;2022-07-06T03:19:51;99348.06;;;15.71;100.00
7888;BME280;3989;48.810;9.208;2022-07-06T03:22:20;99228.94;;;14.87;100.00
7888;BME280;3989;48.810;9.208;2022-07-06T03:24:46;99223.50;;;14.81;100.00
7888;BME280;3989;48.810;9.208;2022-07-06T03:27:14;99311.38;;;15.36;100.00
7888;BME280;3989;48.810;9.208;2022-07-06T03:29:40;99270.81;;;15.03;100.00
7888;BME280;3989;48.810;9.208;2022-07-06T03:32:07;99356.50;;;15.61;100.00
7888;BME280;3989;48.810;9.208;2022-07-06T03:34:34;99366.91;;;15.71;100.00
7888;BME280;3989;48.810;9.208;2022-07-06T03:37:01;99336.91;;;15.46;100.00
7888;BME280;3989;48.810;9.208;2022-07-06T03:39:29;99316.16;;;15.34;100.00
7888;BME280;3989;48.810;9.208;2022-07-06T03:41:56;99370.75;;;15.55;100.00
7888;BME280;3989;48.810;9.208;2022-07-06T03:44:22;99347.25;;;15.43;100.00
7888;BME280;3989;48.810;9.208;2022-07-06T03:46:49;99317.28;;;15.18;100.00
7888;BME280;3989;48.810;9.208;2022-07-06T03:49:16;99265.34;;;14.90;100.00
7888;BME280;3989;48.810;9.208;2022-07-06T03:51:42;99293.81;;;15.05;100.00
7888;BME280;3989;48.810;9.208;2022-07-06T03:54:09;99382.56;;;15.61;100.00
7888;BME280;3989;48.810;9.208;2022-07-06T03:56:50;99258.66;;;14.79;100.00
7888;BME280;3989;48.810;9.208;2022-07-06T03:59:23;99295.91;;;15.10;100.00
7888;BME280;3989;48.810;9.208;2022-07-06T04:01:50;99291.50;;;15.02;100.00
7888;BME280;3989;48.810;9.208;2022-07-06T04:04:18;99365.50;;;15.47;100.00
7888;BME280;3989;48.810;9.208;2022-07-06T04:06:44;99398.81;;;15.74;100.00
7888;BME280;3989;48.810;9.208;2022-07-06T04:09:11;99394.56;;;15.86;100.00
7888;BME280;3989;48.810;9.208;2022-07-06T04:11:38;99330.81;;;15.59;100.00
7888;BME280;3989;48.810;9.208;2022-07-06T04:14:06;99272.47;;;15.32;100.00
7888;BME280;3989;48.810;9.208;2022-07-06T04:16:33;99225.88;;;15.18;100.00
7888;BME280;3989;48.810;9.208;2022-07-06T04:19:01;99225.56;;;15.34;100.00
7888;BME280;3989;48.810;9.208;2022-07-06T04:21:28;99409.56;;;16.49;100.00
7888;BME280;3989;48.810;9.208;2022-07-06T04:23:55;99401.69;;;16.54;100.00
7888;BME280;3989;48.810;9.208;2022-07-06T04:26:21;99407.31;;;16.53;100.00
7888;BME280;3989;48.810;9.208;2022-07-06T04:28:48;99404.19;;;16.49;100.00
7888;BME280;3989;48.810;9.208;2022-07-06T04:31:16;99296.78;;;15.79;100.00
7888;BME280;3989;48.810;9.208;2022-07-06T04:33:42;99412.28;;;16.49;100.00
7888;BME280;3989;48.810;9.208;2022-07-06T04:36:09;99380.50;;;16.32;100.00
7888;BME280;3989;48.810;9.208;2022-07-06T04:38:36;99399.63;;;16.50;100.00
7888;BME280;3989;48.810;9.208;2022-07-06T04:41:03;99413.19;;;16.63;100.00
7888;BME280;3989;48.810;9.208;2022-07-06T04:43:30;99411.09;;;16.58;100.00
7888;BME280;3989;48.810;9.208;2022-07-06T04:45:56;99385.53;;;16.48;100.00
7888;BME280;3989;48.810;9.208;2022-07-06T04:48:24;99412.97;;;16.64;100.00
7888;BME280;3989;48.810;9.208;2022-07-06T04:50:51;99301.59;;;15.90;100.00
7888;BME280;3989;48.810;9.208;2022-07-06T04:53:17;99379.31;;;16.47;100.00
7888;BME280;3989;48.810;9.208;2022-07-06T04:55:44;99411.75;;;16.67;100.00
7888;BME280;3989;48.810;9.208;2022-07-06T04:58:11;99414.06;;;16.76;100.00
7888;BME280;3989;48.810;9.208;2022-07-06T05:00:37;99405.56;;;16.73;100.00
7888;BME280;3989;48.810;9.208;2022-07-06T05:03:04;99384.59;;;16.68;100.00
7888;BME280;3989;48.810;9.208;2022-07-06T05:05:32;99407.03;;;16.82;100.00
7888;BME280;3989;48.810;9.208;2022-07-06T05:07:58;99412.44;;;16.89;100.00
7888;BME280;3989;48.810;9.208;2022-07-06T05:10:25;99398.31;;;16.80;100.00
7888;BME280;3989;48.810;9.208;2022-07-06T05:12:52;99429.91;;;17.06;100.00
7888;BME280;3989;48.810;9.208;2022-07-06T05:15:18;99388.31;;;16.74;100.00
7888;BME280;3989;48.810;9.208;2022-07-06T05:17:45;99345.34;;;16.53;100.00
7888;BME280;3989;48.810;9.208;2022-07-06T05:20:12;99441.50;;;17.13;100.00
7888;BME280;3989;48.810;9.208;2022-07-06T05:22:40;99422.84;;;17.05;100.00
7888;BME280;3989;48.810;9.208;2022-07-06T05:25:07;99390.63;;;16.90;100.00
7888;BME280;3989;48.810;9.208;2022-07-06T05:27:34;99347.28;;;16.78;100.00
7888;BME280;3989;48.810;9.208;2022-07-06T05:30:01;99204.09;;;15.88;100.00
7888;BME280;3989;48.810;9.208;2022-07-06T05:32:27;99407.94;;;17.28;100.00
7888;BME280;3989;48.810;9.208;2022-07-06T05:34:54;99439.09;;;17.51;100.00
7888;BME280;3989;48.810;9.208;2022-07-06T05:37:21;99390.94;;;17.41;100.00
7888;BME280;3989;48.810;9.208;2022-07-06T05:39:49;99363.09;;;17.34;100.00
7888;BME280;3989;48.810;9.208;2022-07-06T05:42:16;99444.25;;;18.05;97.97
7888;BME280;3989;48.810;9.208;2022-07-06T05:44:43;99442.97;;;18.20;94.09
7888;BME280;3989;48.810;9.208;2022-07-06T05:47:09;99440.28;;;18.14;91.23
7888;BME280;3989;48.810;9.208;2022-07-06T05:49:54;99442.50;;;18.36;88.21
7888;BME280;3989;48.810;9.208;2022-07-06T05:52:38;99439.59;;;18.38;87.88
7888;BME280;3989;48.810;9.208;2022-07-06T05:55:08;99428.97;;;18.43;85.02
7888;BME280;3989;48.810;9.208;2022-07-06T05:57:35;99415.03;;;18.46;84.62
7888;BME280;3989;48.810;9.208;2022-07-06T06:00:03;99359.78;;;18.35;80.70
7888;BME280;3989;48.810;9.208;2022-07-06T06:02:36;99414.56;;;18.62;83.84
7888;BME280;3989;48.810;9.208;2022-07-06T06:05:04;99387.56;;;18.56;83.32
7888;BME280;3989;48.810;9.208;2022-07-06T06:07:32;99448.63;;;19.14;78.48
7888;BME280;3989;48.810;9.208;2022-07-06T06:09:59;99442.84;;;19.35;76.58
7888;BME280;3989;48.810;9.208;2022-07-06T06:12:27;99444.44;;;19.50;75.24
7888;BME280;3989;48.810;9.208;2022-07-06T06:14:54;99375.03;;;19.06;72.02
7888;BME280;3989;48.810;9.208;2022-07-06T06:17:20;99453.81;;;19.54;70.08
7888;BME280;3989;48.810;9.208;2022-07-06T06:19:47;99446.31;;;19.49;70.14
7888;BME280;3989;48.810;9.208;2022-07-06T06:22:14;99419.72;;;19.39;70.27
7888;BME280;3989;48.810;9.208;2022-07-06T06:24:40;99387.06;;;19.41;65.62
7888;BME280;3989;48.810;9.208;2022-07-06T06:27:07;99417.28;;;19.63;67.87
7888;BME280;3989;48.810;9.208;2022-07-06T06:29:35;99432.84;;;19.92;64.82
7888;BME280;3989;48.810;9.208;2022-07-06T06:32:02;99466.47;;;20.27;62.36
7888;BME280;3989;48.810;9.208;2022-07-06T06:34:30;99471.69;;;20.47;61.93
7888;BME280;3989;48.810;9.208;2022-07-06T06:36:57;99326.88;;;19.64;60.87
7888;BME280;3989;48.810;9.208;2022-07-06T06:39:24;99473.34;;;20.66;61.34
7888;BME280;3989;48.810;9.208;2022-07-06T06:41:50;99474.47;;;20.59;61.87
7888;BME280;3989;48.810;9.208;2022-07-06T06:44:17;99472.38;;;20.61;63.30
7888;BME280;3989;48.810;9.208;2022-07-06T06:46:45;99398.97;;;20.01;64.27
7888;BME280;3989;48.810;9.208;2022-07-06T06:49:11;99391.22;;;20.05;63.30
7888;BME280;3989;48.810;9.208;2022-07-06T06:51:38;99306.84;;;19.65;61.78
7888;BME280;3989;48.810;9.208;2022-07-06T06:54:05;99364.06;;;20.29;61.60
7888;BME280;3989;48.810;9.208;2022-07-06T06:56:32;99276.78;;;19.73;61.58
7888;BME280;3989;48.810;9.208;2022-07-06T06:58:58;99249.78;;;19.48;60.15
7888;BME280;3989;48.810;9.208;2022-07-06T07:01:27;99478.53;;;20.86;59.78
7888;BME280;3989;48.810;9.208;2022-07-06T07:03:56;99450.59;;;20.49;60.05
7888;BME280;3989;48.810;9.208;2022-07-06T07:06:22;99457.16;;;20.60;60.20
7888;BME280;3989;48.810;9.208;2022-07-06T07:08:49;99464.09;;;20.74;61.26
7888;BME280;3989;48.810;9.208;2022-07-06T07:11:15;99469.97;;;20.53;61.02
7888;BME280;3989;48.810;9.208;2022-07-06T07:13:42;99465.28;;;20.60;60.62
7888;BME280;3989;48.810;9.208;2022-07-06T07:16:08;99331.84;;;19.85;60.78
7888;BME280;3989;48.810;9.208;2022-07-06T07:18:35;99443.44;;;20.36;60.43
7888;BME280;3989;48.810;9.208;2022-07-06T07:21:03;99428.25;;;20.35;61.46
7888;BME280;3989;48.810;9.208;2022-07-06T07:23:30;99414.44;;;20.19;61.24
7888;BME280;3989;48.810;9.208;2022-07-06T07:25:56;99265.84;;;19.43;59.24
7888;BME280;3989;48.810;9.208;2022-07-06T07:28:23;99415.75;;;20.34;60.49
7888;BME280;3989;48.810;9.208;2022-07-06T07:30:50;99461.75;;;20.59;58.74
7888;BME280;3989;48.810;9.208;2022-07-06T07:33:16;99421.94;;;20.41;58.52
7888;BME280;3989;48.810;9.208;2022-07-06T07:35:43;99434.88;;;20.58;59.51
7888;BME280;3989;48.810;9.208;2022-07-06T07:38:11;99463.63;;;20.77;58.72
7888;BME280;3989;48.810;9.208;2022-07-06T07:40:38;99314.69;;;19.73;60.09
7888;BME280;3989;48.810;9.208;2022-07-06T07:43:05;99429.78;;;20.25;61.52
7888;BME280;3989;48.810;9.208;2022-07-06T07:45:31;99275.78;;;19.49;60.84
7888;BME280;3989;48.810;9.208;2022-07-06T07:47:58;99343.28;;;20.05;60.61
7888;BME280;3989;48.810;9.208;2022-07-06T07:50:25;99441.94;;;20.77;59.27
7888;BME280;3989;48.810;9.208;2022-07-06T07:52:52;99374.25;;;20.34;61.37
7888;BME280;3989;48.810;9.208;2022-07-06T07:55:20;99373.28;;;20.28;61.86
7888;BME280;3989;48.810;9.208;2022-07-06T07:57:47;99237.13;;;19.42;60.98
7888;BME280;3989;48.810;9.208;2022-07-06T08:00:14;99329.22;;;19.97;60.82
7888;BME280;3989;48.810;9.208;2022-07-06T08:02:41;99210.09;;;19.35;60.48
7888;BME280;3989;48.810;9.208;2022-07-06T08:05:08;99459.75;;;20.84;61.52
7888;BME280;3989;48.810;9.208;2022-07-06T08:07:38;99431.69;;;20.61;60.51
7888;BME280;3989;48.810;9.208;2022-07-06T08:10:06;99195.97;;;19.33;60.93
7888;BME280;3989;48.810;9.208;2022-07-06T08:12:34;99197.66;;;19.53;59.88
7888;BME280;3989;48.810;9.208;2022-07-06T08:15:01;99283.81;;;20.10;59.46
7888;BME280;3989;48.810;9.208;2022-07-06T08:17:28;99373.28;;;20.58;58.11
7888;BME280;3989;48.810;9.208;2022-07-06T08:19:55;99473.53;;;21.19;59.60
7888;BME280;3989;48.810;9.208;2022-07-06T08:22:22;99309.09;;;20.40;57.83
7888;BME280;3989;48.810;9.208;2022-07-06T08:24:49;99267.59;;;20.40;57.85
7888;BME280;3989;48.810;9.208;2022-07-06T08:27:15;99425.44;;;21.50;55.76
7888;BME280;3989;48.810;9.208;2022-07-06T08:29:44;99405.13;;;21.52;56.07
7888;BME280;3989;48.810;9.208;2022-07-06T08:32:11;99214.19;;;20.11;57.50
7888;BME280;3989;48.810;9.208;2022-07-06T08:34:37;99257.09;;;20.32;56.50
7888;BME280;3989;48.810;9.208;2022-07-06T08:37:04;99342.28;;;20.84;57.91
7888;BME280;3989;48.810;9.208;2022-07-06T08:39:31;99358.72;;;21.01;58.16
7888;BME280;3989;48.810;9.208;2022-07-06T08:41:58;99366.22;;;21.17;57.03
7888;BME280;3989;48.810;9.208;2022-07-06T08:44:27;99452.06;;;21.82;57.04
7888;BME280;3989;48.810;9.208;2022-07-06T08:46:57;99455.47;;;21.78;57.56
7888;BME280;3989;48.810;9.208;2022-07-06T08:49:25;99366.16;;;21.35;58.89
7888;BME280;3989;48.810;9.208;2022-07-06T08:51:52;99239.34;;;20.48;57.67
7888;BME280;3989;48.810;9.208;2022-07-06T08:54:21;99450.03;;;21.78;58.75
7888;BME280;3989;48.810;9.208;2022-07-06T08:56:48;99433.88;;;21.94;57.06
7888;BME280;3989;48.810;9.208;2022-07-06T08:59:18;99311.34;;;21.15;56.44
7888;BME280;3989;48.810;9.208;2022-07-06T09:01:46;99343.63;;;21.58;54.24
7888;BME280;3989;48.810;9.208;2022-07-06T09:04:33;99454.91;;;22.34;54.59
7888;BME280;3989;48.810;9.208;2022-07-06T09:07:02;99431.91;;;22.13;53.93
7888;BME280;3989;48.810;9.208;2022-07-06T09:09:29;99451.03;;;22.18;55.42
7888;BME280;3989;48.810;9.208;2022-07-06T09:11:57;99455.63;;;22.29;54.84
7888;BME280;3989;48.810;9.208;2022-07-06T09:14:24;99434.94;;;22.17;53.21
7888;BME280;3989;48.810;9.208;2022-07-06T09:16:52;99422.78;;;22.19;54.10
7888;BME280;3989;48.810;9.208;2022-07-06T09:19:19;99374.94;;;21.95;53.94
7888;BME280;3989;48.810;9.208;2022-07-06T09:21:48;99440.56;;;22.50;53.86
7888;BME280;3989;48.810;9.208;2022-07-06T09:24:14;99403.38;;;22.39;53.24
7888;BME280;3989;48.810;9.208;2022-07-06T09:26:41;99384.56;;;22.37;50.40
7888;BME280;3989;48.810;9.208;2022-07-06T09:29:08;99470.22;;;22.75;51.00
7888;BME280;3989;48.810;9.208;2022-07-06T09:31:35;99473.34;;;22.67;50.38
7888;BME280;3989;48.810;9.208;2022-07-06T09:34:03;99438.78;;;22.56;51.13
7888;BME280;3989;48.810;9.208;2022-07-06T09:36:40;99430.44;;;22.85;49.42
7888;BME280;3989;48.810;9.208;2022-07-06T09:39:22;99465.50;;;23.38;49.18
7888;BME280;3989;48.810;9.208;2022-07-06T09:41:50;99424.25;;;23.18;49.30
7888;BME280;3989;48.810;9.208;2022-07-06T09:44:21;99429.31;;;22.98;49.86
7888;BME280;3989;48.810;9.208;2022-07-06T09:46:49;99467.22;;;22.88;50.50
7888;BME280;3989;48.810;9.208;2022-07-06T09:49:17;99470.69;;;22.83;51.05
7888;BME280;3989;48.810;9.208;2022-07-06T09:51:44;99455.56;;;22.64;50.49
7888;BME280;3989;48.810;9.208;2022-07-06T09:54:12;99479.00;;;22.77;50.40
7888;BME280;3989;48.810;9.208;2022-07-06T09:56:41;99407.44;;;22.53;48.61
7888;BME280;3989;48.810;9.208;2022-07-06T09:59:09;99466.03;;;22.95;49.37
7888;BME280;3989;48.810;9.208;2022-07-06T10:01:36;99478.22;;;22.93;50.46
7888;BME280;3989;48.810;9.208;2022-07-06T10:04:03;99491.66;;;23.11;49.95
7888;BME280;3989;48.810;9.208;2022-07-06T10:06:30;99464.47;;;23.28;48.45
7888;BME280;3989;48.810;9.208;2022-07-06T10:08:58;99432.94;;;23.15;47.82
7888;BME280;3989;48.810;9.208;2022-07-06T10:11:25;99487.59;;;23.70;47.47
7888;BME280;3989;48.810;9.208;2022-07-06T10:13:57;99471.97;;;23.21;47.33
7888;BME280;3989;48.810;9.208;2022-07-06T10:16:24;99490.88;;;23.56;46.96
7888;BME280;3989;48.810;9.208;2022-07-06T10:18:52;99414.88;;;23.26;47.21
7888;BME280;3989;48.810;9.208;2022-07-06T10:21:21;99499.84;;;23.68;47.14
7888;BME280;3989;48.810;9.208;2022-07-06T10:23:51;99481.75;;;23.62;48.14
7888;BME280;3989;48.810;9.208;2022-07-06T10:26:18;99496.00;;;23.69;47.34
7888;BME280;3989;48.810;9.208;2022-07-06T10:28:57;99476.13;;;23.68;47.35
7888;BME280;3989;48.810;9.208;2022-07-06T10:31:34;99345.47;;;23.12;47.01
7888;BME280;3989;48.810;9.208;2022-07-06T10:34:15;99399.41;;;23.43;46.46
7888;BME280;3989;48.810;9.208;2022-07-06T10:36:49;99348.84;;;23.19;45.77
7888;BME280;3989;48.810;9.208;2022-07-06T10:39:32;99493.97;;;24.09;45.29
7888;BME280;3989;48.810;9.208;2022-07-06T10:42:43;99494.34;;;24.13;46.10
7888;BME280;3989;48.810;9.208;2022-07-06T10:45:14;99355.53;;;23.28;46.06
7888;BME280;3989;48.810;9.208;2022-07-06T10:47:41;99385.25;;;23.29;46.71
7888;BME280;3989;48.810;9.208;2022-07-06T10:50:09;99477.88;;;23.91;46.68
7888;BME280;3989;48.810;9.208;2022-07-06T10:52:50;99328.34;;;22.83;47.18
7888;BME280;3989;48.810;9.208;2022-07-06T10:55:31;99400.56;;;22.74;48.66
7888;BME280;3989;48.810;9.208;2022-07-06T10:57:58;99458.41;;;23.09;48.86
7888;BME280;3989;48.810;9.208;2022-07-06T11:00:47;99480.59;;;23.74;47.80
7888;BME280;3989;48.810;9.208;2022-07-06T11:03:31;99482.59;;;24.12;46.70
7888;BME280;3989;48.810;9.208;2022-07-06T11:05:58;99412.66;;;23.39;47.13
7888;BME280;3989;48.810;9.208;2022-07-06T11:08:51;99453.75;;;24.16;47.00
7888;BME280;3989;48.810;9.208;2022-07-06T11:11:20;99461.34;;;24.14;45.83
7888;BME280;3989;48.810;9.208;2022-07-06T11:13:55;99345.75;;;23.60;45.44
7888;BME280;3989;48.810;9.208;2022-07-06T11:16:24;99260.88;;;23.35;45.57
7888;BME280;3989;48.810;9.208;2022-07-06T11:19:04;99444.22;;;24.57;43.76
7888;BME280;3989;48.810;9.208;2022-07-06T11:21:36;99265.72;;;23.66;43.64
7888;BME280;3989;48.810;9.208;2022-07-06T11:24:05;99394.31;;;24.40;41.83
7888;BME280;3989;48.810;9.208;2022-07-06T11:26:33;99334.00;;;23.98;42.42
7888;BME280;3989;48.810;9.208;2022-07-06T11:29:03;99470.72;;;25.00;42.39
7888;BME280;3989;48.810;9.208;2022-07-06T11:31:49;99264.34;;;23.85;43.44
7888;BME280;3989;48.810;9.208;2022-07-06T11:34:19;99303.53;;;24.44;42.78
7888;BME280;3989;48.810;9.208;2022-07-06T11:36:45;99373.56;;;24.82;42.50
7888;BME280;3989;48.810;9.208;2022-07-06T11:39:13;99457.09;;;25.05;42.96
7888;BME280;3989;48.810;9.208;2022-07-06T11:41:40;99224.78;;;23.61;43.12
7888;BME280;3989;48.810;9.208;2022-07-06T11:44:07;99427.41;;;24.87;43.54
7888;BME280;3989;48.810;9.208;2022-07-06T11:46:37;99460.75;;;24.89;43.94
7888;BME280;3989;48.810;9.208;2022-07-06T11:49:07;99239.78;;;23.25;44.03
7888;BME280;3989;48.810;9.208;2022-07-06T11:51:35;99467.47;;;24.43;44.97
7888;BME280;3989;48.810;9.208;2022-07-06T11:54:09;99455.81;;;24.47;44.94
7888;BME280;3989;48.810;9.208;2022-07-06T11:59:30;99342.91;;;25.02;43.04
7888;BME280;3989;48.810;9.208;2022-07-06T12:02:00;99463.00;;;26.09;42.53
7888;BME280;3989;48.810;9.208;2022-07-06T12:04:57;99250.09;;;24.75;42.90
7888;BME280;3989;48.810;9.208;2022-07-06T12:10:58;99372.03;;;25.18;42.88
7888;BME280;3989;48.810;9.208;2022-07-06T12:14:12;99247.97;;;23.85;42.77
7888;BME280;3989;48.810;9.208;2022-07-06T12:17:03;99394.91;;;24.85;42.90
7888;BME280;3989;48.810;9.208;2022-07-06T12:19:34;99289.41;;;24.52;43.06
7888;BME280;3989;48.810;9.208;2022-07-06T12:22:04;99370.59;;;24.84;42.87
7888;BME280;3989;48.810;9.208;2022-07-06T12:24:32;99447.59;;;25.61;42.41
7888;BME280;3989;48.810;9.208;2022-07-06T12:27:09;99442.59;;;25.26;43.51
7888;BME280;3989;48.810;9.208;2022-07-06T12:30:04;99434.94;;;25.28;43.60
7888;BME280;3989;48.810;9.208;2022-07-06T12:33:11;99218.47;;;24.52;42.84
7888;BME280;3989;48.810;9.208;2022-07-06T12:35:40;99227.88;;;24.35;41.73
7888;BME280;3989;48.810;9.208;2022-07-06T12:38:22;99223.22;;;23.87;42.66
7888;BME280;3989;48.810;9.208;2022-07-06T12:48:00;99295.94;;;24.25;43.54
7888;BME280;3989;48.810;9.208;2022-07-06T12:51:09;99346.28;;;24.17;44.02
7888;BME280;3989;48.810;9.208;2022-07-06T12:53:38;99283.09;;;23.43;44.58
7888;BME280;3989;48.810;9.208;2022-07-06T12:56:08;99297.13;;;23.19;44.48
7888;BME280;3989;48.810;9.208;2022-07-06T12:58:35;99271.94;;;23.28;44.54
7888;BME280;3989;48.810;9.208;2022-07-06T13:01:02;99453.41;;;24.51;43.21
7888;BME280;3989;48.810;9.208;2022-07-06T13:03:37;99433.13;;;24.85;43.92
7888;BME280;3989;48.810;9.208;2022-07-06T13:06:05;99348.47;;;25.12;42.86
7888;BME280;3989;48.810;9.208;2022-07-06T13:08:34;99263.72;;;24.75;41.93
7888;BME280;3989;48.810;9.208;2022-07-06T13:11:03;99255.50;;;24.70;41.25
7888;BME280;3989;48.810;9.208;2022-07-06T13:13:30;99428.47;;;25.61;41.19
7888;BME280;3989;48.810;9.208;2022-07-06T13:15:56;99364.53;;;25.35;41.11
7888;BME280;3989;48.810;9.208;2022-07-06T13:18:23;99274.63;;;24.97;41.03
7888;BME280;3989;48.810;9.208;2022-07-06T13:20:50;99389.91;;;25.63;40.05
7888;BME280;3989;48.810;9.208;2022-07-06T13:23:16;99431.88;;;25.78;40.26
7888;BME280;3989;48.810;9.208;2022-07-06T13:25:43;99338.28;;;25.02;41.14
7888;BME280;3989;48.810;9.208;2022-07-06T13:28:11;99434.00;;;25.71;40.79
7888;BME280;3989;48.810;9.208;2022-07-06T13:30:38;99408.03;;;25.69;40.56
7888;BME280;3989;48.810;9.208;2022-07-06T13:33:04;99355.00;;;25.38;40.35
7888;BME280;3989;48.810;9.208;2022-07-06T13:38:53;99422.00;;;26.14;40.35
7888;BME280;3989;48.810;9.208;2022-07-06T13:41:19;99411.03;;;25.72;40.38
7888;BME280;3989;48.810;9.208;2022-07-06T13:43:48;99404.03;;;25.86;40.13
7888;BME280;3989;48.810;9.208;2022-07-06T13:46:15;99414.97;;;25.81;39.86